createdAt,value
2019-04-29T04:36:34.525Z,95.00
2019-04-29T04:39:05.771Z,94.90
2019-04-29T04:41:37.341Z,95.00
2019-04-29T04:44:07.357Z,95.70
2019-04-29T04:46:37.310Z,95.60
2019-04-29T04:49:07.308Z,95.20
2019-04-29T04:51:37.288Z,95.00
2019-04-29T04:54:07.286Z,95.10
2019-04-29T04:56:37.245Z,95.40
2019-04-29T04:59:07.253Z,95.30
2019-04-29T05:01:37.234Z,95.10
2019-04-29T05:04:07.199Z,95.00
2019-04-29T05:06:37.183Z,95.70
2019-04-29T05:09:07.587Z,95.30
2019-04-29T05:11:37.567Z,95.30
2019-04-29T05:14:07.569Z,95.60
2019-04-29T05:16:38.975Z,95.60
2019-04-29T05:19:08.967Z,95.00
2019-04-29T05:21:38.937Z,95.50
2019-04-29T05:24:08.897Z,95.40
2019-04-29T05:26:38.889Z,95.20
2019-04-29T05:29:08.849Z,95.00
2019-04-29T05:31:38.862Z,95.30
2019-04-29T05:34:08.829Z,95.30
2019-04-29T05:36:46.564Z,95.60
2019-04-29T05:39:27.186Z,95.70
2019-04-29T05:41:57.167Z,95.60
2019-04-29T05:44:31.717Z,95.30
2019-04-29T05:47:03.393Z,95.40
2019-04-29T05:49:50.285Z,96.00
2019-04-29T05:52:21.890Z,96.30
2019-04-29T05:55:09.609Z,96.30
2019-04-29T05:57:36.509Z,96.60
2019-04-29T06:00:06.740Z,96.20
2019-04-29T06:02:38.833Z,96.00
2019-04-29T06:05:08.561Z,96.20
2019-04-29T06:07:38.530Z,96.30
2019-04-29T06:10:10.028Z,96.40
2019-04-29T06:12:39.981Z,96.50
2019-04-29T06:15:10.616Z,96.50
2019-04-29T06:17:44.839Z,96.80
2019-04-29T06:20:13.170Z,96.40
2019-04-29T06:22:43.979Z,96.50
2019-04-29T06:25:13.989Z,96.30
2019-04-29T06:27:43.968Z,96.50
2019-04-29T06:30:14.692Z,96.40
2019-04-29T06:32:44.671Z,96.50
2019-04-29T06:35:15.432Z,96.00
2019-04-29T06:37:45.467Z,96.20
2019-04-29T06:40:15.609Z,96.30
2019-04-29T06:42:49.292Z,95.90
2019-04-29T06:45:18.352Z,95.50
2019-04-29T06:47:48.719Z,95.50
2019-04-29T06:50:18.955Z,95.30
2019-04-29T06:52:48.935Z,95.00
2019-04-29T06:55:18.980Z,95.20
2019-04-29T06:57:48.949Z,95.30
2019-04-29T07:00:22.310Z,95.20
2019-04-29T07:02:51.095Z,95.00
2019-04-29T07:05:21.121Z,94.90
2019-04-29T07:07:51.071Z,95.00
2019-04-29T07:10:24.596Z,95.10
2019-04-29T07:12:52.715Z,95.00
2019-04-29T07:15:22.688Z,95.00
2019-04-29T07:17:52.702Z,94.90
2019-04-29T07:20:22.672Z,94.90
2019-04-29T07:22:52.807Z,95.30
2019-04-29T07:25:24.716Z,95.00
2019-04-29T07:27:55.944Z,95.40
2019-04-29T07:30:29.036Z,95.50
2019-04-29T07:32:57.546Z,95.00
2019-04-29T07:35:27.506Z,94.70
2019-04-29T07:37:57.523Z,94.50
2019-04-29T07:40:27.560Z,94.30
2019-04-29T07:42:57.548Z,94.20
2019-04-29T07:45:44.054Z,94.30
2019-04-29T07:48:07.742Z,94.30
2019-04-29T07:50:37.928Z,94.40
2019-04-29T07:53:07.899Z,94.70
2019-04-29T07:55:37.897Z,94.00
2019-04-29T07:58:07.865Z,94.40
2019-04-29T08:00:37.929Z,93.90
2019-04-29T08:03:09.254Z,93.80
2019-04-29T08:05:41.065Z,93.80
2019-04-29T08:08:11.105Z,94.10
2019-04-29T08:10:52.495Z,94.00
2019-04-29T08:13:14.328Z,93.30
2019-04-29T08:15:44.313Z,93.40
2019-04-29T08:18:18.242Z,93.20
2019-04-29T08:20:48.552Z,92.90
2019-04-29T08:23:18.556Z,92.90
2019-04-29T08:25:50.950Z,92.90
2019-04-29T08:28:20.296Z,93.30
2019-04-29T08:30:50.291Z,93.30
2019-04-29T08:33:20.257Z,93.20
2019-04-29T08:35:50.241Z,93.10
2019-04-29T08:38:20.205Z,93.30
2019-04-29T08:40:51.749Z,93.40
2019-04-29T08:43:23.381Z,93.40
2019-04-29T08:46:06.937Z,93.20
2019-04-29T08:48:37.982Z,93.10
2019-04-29T08:51:07.970Z,93.10
2019-04-29T08:53:37.943Z,93.20
2019-04-29T08:56:10.312Z,93.20
2019-04-29T08:58:39.653Z,93.10
2019-04-29T09:01:11.124Z,93.20
2019-04-29T09:03:41.257Z,93.40
2019-04-29T09:06:11.281Z,93.60
2019-04-29T09:08:54.142Z,93.70
2019-04-29T09:11:14.435Z,93.60
2019-04-29T09:13:44.674Z,93.40
2019-04-29T09:16:14.637Z,93.50
2019-04-29T09:18:44.621Z,93.20
2019-04-29T09:21:14.680Z,93.20
2019-04-29T09:23:44.711Z,93.30
2019-04-29T09:26:16.298Z,93.30
2019-04-29T09:28:49.446Z,93.80
2019-04-29T09:31:18.369Z,93.10
2019-04-29T09:33:49.240Z,93.10
2019-04-29T09:36:19.967Z,93.20
2019-04-29T09:38:50.972Z,93.00
2019-04-29T09:41:30.495Z,93.30
2019-04-29T09:44:07.541Z,93.60
2019-04-29T09:46:37.537Z,93.70
2019-04-29T09:49:07.504Z,93.40
2019-04-29T09:51:37.508Z,93.70
2019-04-29T09:54:09.598Z,93.70
2019-04-29T09:56:39.094Z,93.40
2019-04-29T09:59:25.979Z,93.00
2019-04-29T10:01:57.680Z,93.00
2019-04-29T10:04:29.369Z,93.40
2019-04-29T10:06:59.378Z,93.40
2019-04-29T10:09:29.353Z,93.10
2019-04-29T10:11:59.420Z,93.00
2019-04-29T10:14:30.356Z,92.90
2019-04-29T10:17:17.276Z,92.80
2019-04-29T10:19:52.028Z,92.60
2019-04-29T10:22:22.841Z,92.80
2019-04-29T10:24:52.809Z,92.50
2019-04-29T10:27:22.804Z,92.60
2019-04-29T10:29:55.279Z,92.60
2019-04-29T10:32:26.277Z,92.80
2019-04-29T10:34:56.242Z,92.80
2019-04-29T10:37:31.512Z,93.00
2019-04-29T10:40:11.079Z,92.90
2019-04-29T10:42:36.334Z,92.60
2019-04-29T10:45:12.449Z,92.30
2019-04-29T10:47:47.083Z,92.20
2019-04-29T10:50:19.729Z,92.10
2019-04-29T10:52:49.963Z,92.00
2019-04-29T10:55:21.547Z,91.90
2019-04-29T10:57:51.644Z,91.80
2019-04-29T11:00:29.228Z,91.60
2019-04-29T11:02:59.455Z,92.10
2019-04-29T11:05:31.084Z,92.30
2019-04-29T11:08:04.372Z,92.20
2019-04-29T11:10:34.664Z,92.00
2019-04-29T11:13:05.197Z,92.10
2019-04-29T11:15:36.703Z,91.70
2019-04-29T11:18:08.016Z,91.80
2019-04-29T11:20:38.080Z,91.50
2019-04-29T11:23:16.624Z,91.10
2019-04-29T11:26:01.275Z,91.60
2019-04-29T11:28:31.784Z,90.80
2019-04-29T11:31:01.931Z,90.80
2019-04-29T11:33:35.543Z,90.60
2019-04-29T11:36:12.739Z,90.60
2019-04-29T11:38:42.697Z,90.50
2019-04-29T11:41:19.577Z,90.50
2019-04-29T11:43:46.608Z,90.50
2019-04-29T11:46:16.365Z,90.50
2019-04-29T11:48:46.321Z,90.30
2019-04-29T11:51:17.969Z,89.40
2019-04-29T11:53:47.943Z,87.00
2019-04-29T11:56:18.014Z,86.20
2019-04-29T11:59:01.500Z,84.70
2019-04-29T12:01:47.236Z,84.30
2019-04-29T12:04:15.806Z,81.70
2019-04-29T12:06:45.864Z,81.60
2019-04-29T12:09:16.008Z,81.10
2019-04-29T12:11:45.970Z,80.40
2019-04-29T12:14:17.671Z,80.00
2019-04-29T12:17:04.544Z,79.40
2019-04-29T12:19:36.167Z,79.50
2019-04-29T12:22:08.989Z,79.70
2019-04-29T12:24:38.221Z,80.30
2019-04-29T12:27:08.564Z,80.70
2019-04-29T12:29:38.520Z,80.10
2019-04-29T12:32:10.128Z,79.60
2019-04-29T12:35:00.144Z,79.30
2019-04-29T12:37:37.820Z,78.40
2019-04-29T12:40:27.333Z,78.20
2019-04-29T12:43:15.910Z,75.90
2019-04-29T12:45:53.453Z,76.20
2019-04-29T12:48:25.049Z,75.60
2019-04-29T12:50:57.479Z,74.60
2019-04-29T12:53:24.994Z,73.70
2019-04-29T12:55:56.336Z,74.20
2019-04-29T12:58:26.449Z,73.30
2019-04-29T13:01:00.940Z,73.60
2019-04-29T13:03:39.720Z,73.00
2019-04-29T13:06:09.619Z,72.60
2019-04-29T13:08:40.798Z,72.20
2019-04-29T13:11:10.976Z,72.90
2019-04-29T13:13:42.475Z,73.40
2019-04-29T13:16:20.169Z,73.50
2019-04-29T13:18:48.857Z,73.70
2019-04-29T13:21:20.210Z,72.90
2019-04-29T13:24:04.900Z,70.60
2019-04-29T13:26:28.429Z,70.90
2019-04-29T13:29:00.393Z,68.20
2019-04-29T13:31:37.389Z,67.50
2019-04-29T13:34:04.809Z,65.40
2019-04-29T13:36:30.169Z,64.30
2019-04-29T13:39:00.242Z,63.20
2019-04-29T13:41:30.209Z,63.50
2019-04-29T13:44:05.297Z,62.30
2019-04-29T13:46:46.273Z,59.90
2019-04-29T13:49:20.884Z,59.00
2019-04-29T13:51:52.568Z,57.30
2019-04-29T13:54:22.515Z,58.50
2019-04-29T13:56:56.836Z,58.40
2019-04-29T13:59:25.963Z,56.60
2019-04-29T14:02:07.288Z,56.40
2019-04-29T14:04:36.887Z,54.60
2019-04-29T14:07:07.079Z,52.10
2019-04-29T14:09:39.301Z,50.50
2019-04-29T14:12:46.698Z,49.70
2019-04-29T14:14:40.945Z,50.50
2019-04-29T14:17:25.351Z,50.70
2019-04-29T14:19:43.950Z,50.40
2019-04-29T14:22:21.908Z,51.10
2019-04-29T14:24:46.943Z,49.10
2019-04-29T14:27:24.726Z,48.90
2019-04-29T14:29:51.416Z,50.20
2019-04-29T14:32:33.303Z,49.60
2019-04-29T14:35:00.836Z,48.20
2019-04-29T14:37:30.862Z,49.10
2019-04-29T14:40:02.801Z,49.10
2019-04-29T14:42:34.308Z,50.30
2019-04-29T14:45:07.557Z,51.10
2019-04-29T14:47:48.426Z,50.30
2019-04-29T14:50:20.709Z,48.90
2019-04-29T14:52:50.707Z,48.50
2019-04-29T14:55:25.497Z,47.40
2019-04-29T14:57:52.652Z,46.70
2019-04-29T15:00:27.497Z,46.00
2019-04-29T15:03:00.757Z,46.40
2019-04-29T15:05:32.741Z,47.70
2019-04-29T15:08:01.255Z,48.00
2019-04-29T15:10:32.927Z,48.30
2019-04-29T15:13:20.247Z,48.10
2019-04-29T15:15:38.180Z,48.00
2019-04-29T15:18:15.878Z,47.70
2019-04-29T15:20:52.023Z,47.80
2019-04-29T15:23:28.706Z,48.60
2019-04-29T15:25:53.690Z,48.60
2019-04-29T15:28:23.571Z,48.40
2019-04-29T15:30:53.580Z,48.50
2019-04-29T15:33:23.626Z,48.10
2019-04-29T15:35:54.859Z,48.80
2019-04-29T15:38:25.325Z,49.50
2019-04-29T15:40:55.309Z,49.20
2019-04-29T15:43:45.702Z,49.20
2019-04-29T15:45:57.198Z,47.60
2019-04-29T15:48:27.317Z,47.40
2019-04-29T15:50:57.217Z,47.40
2019-04-29T15:53:27.756Z,47.00
2019-04-29T15:56:06.622Z,48.00
2019-04-29T15:58:30.388Z,47.60
2019-04-29T16:01:13.162Z,48.40
2019-04-29T16:03:37.082Z,47.70
2019-04-29T16:06:20.732Z,48.50
2019-04-29T16:08:59.195Z,47.30
2019-04-29T16:11:49.917Z,47.50
2019-04-29T16:14:22.056Z,46.40
2019-04-29T16:16:52.586Z,47.30
2019-04-29T16:19:23.319Z,47.50
2019-04-29T16:21:53.948Z,47.30
2019-04-29T16:24:26.829Z,46.80
2019-04-29T16:27:01.356Z,46.80
2019-04-29T16:29:28.914Z,46.20
2019-04-29T16:32:02.632Z,47.30
2019-04-29T16:34:31.708Z,45.80
2019-04-29T16:37:02.346Z,45.40
2019-04-29T16:39:33.082Z,43.70
2019-04-29T16:42:14.461Z,45.00
2019-04-29T16:44:45.172Z,44.50
2019-04-29T16:47:16.307Z,44.30
2019-04-29T16:49:46.958Z,45.40
2019-04-29T16:52:17.283Z,44.00
2019-04-29T16:54:47.912Z,46.50
2019-04-29T16:57:18.440Z,46.30
2019-04-29T16:59:49.176Z,46.90
2019-04-29T17:02:19.881Z,45.60
2019-04-29T17:04:51.973Z,45.60
2019-04-29T17:07:22.498Z,46.90
2019-04-29T17:10:10.233Z,46.80
2019-04-29T17:12:42.399Z,47.80
2019-04-29T17:15:24.157Z,48.70
2019-04-29T17:17:46.626Z,48.80
2019-04-29T17:20:18.883Z,49.90
2019-04-29T17:22:51.164Z,50.40
2019-04-29T17:25:22.204Z,50.80
2019-04-29T17:28:11.863Z,51.80
2019-04-29T17:30:55.686Z,51.80
2019-04-29T17:33:30.175Z,51.30
2019-04-29T17:36:04.256Z,51.00
2019-04-29T17:38:35.805Z,50.80
2019-04-29T17:41:07.569Z,51.30
2019-04-29T17:43:54.985Z,51.70
2019-04-29T17:46:34.526Z,52.00
2019-04-29T17:49:15.498Z,52.00
2019-04-29T17:51:46.537Z,52.60
2019-04-29T17:54:27.818Z,53.40
2019-04-29T17:57:24.534Z,53.50
2019-04-29T17:59:36.862Z,53.60
2019-04-29T18:02:21.841Z,53.70
2019-04-29T18:05:09.786Z,54.20
2019-04-29T18:07:51.715Z,54.50
2019-04-29T18:10:25.359Z,53.90
2019-04-29T18:12:56.752Z,53.70
2019-04-29T18:15:42.429Z,53.20
2019-04-29T18:18:06.465Z,53.80
2019-04-29T18:20:52.804Z,53.50
2019-04-29T18:23:41.421Z,53.90
2019-04-29T18:26:15.223Z,54.30
2019-04-29T18:28:47.907Z,54.60
2019-04-29T18:31:18.673Z,55.10
2019-04-29T18:33:51.007Z,54.40
2019-04-29T18:36:24.816Z,54.50
2019-04-29T18:38:57.041Z,54.30
2019-04-29T18:41:28.839Z,54.30
2019-04-29T18:44:02.854Z,54.80
2019-04-29T18:46:35.118Z,54.80
2019-04-29T18:49:07.157Z,55.80
2019-04-29T18:51:37.937Z,55.60
2019-04-29T18:54:10.037Z,56.00
2019-04-29T18:56:41.882Z,56.40
2019-04-29T18:59:12.570Z,56.70
2019-04-29T19:01:45.063Z,57.00
2019-04-29T19:04:20.428Z,57.10
2019-04-29T19:06:55.792Z,57.50
2019-04-29T19:09:27.515Z,57.70
2019-04-29T19:11:58.216Z,57.40
2019-04-29T19:14:38.060Z,57.60
2019-04-29T19:17:09.473Z,58.40
2019-04-29T19:19:46.127Z,58.20
2019-04-29T19:22:17.021Z,58.70
2019-04-29T19:24:51.168Z,58.90
2019-04-29T19:27:23.332Z,59.40
2019-04-29T19:29:56.884Z,58.90
2019-04-29T19:32:27.528Z,59.20
2019-04-29T19:34:58.916Z,59.10
2019-04-29T19:37:32.415Z,59.10
2019-04-29T19:40:01.977Z,59.10
2019-04-29T19:42:35.963Z,58.80
2019-04-29T19:45:13.395Z,59.20
2019-04-29T19:47:38.888Z,59.30
2019-04-29T19:50:15.621Z,60.10
2019-04-29T19:52:45.367Z,59.90
2019-04-29T19:55:16.960Z,60.50
2019-04-29T19:57:51.959Z,60.60
2019-04-29T20:00:27.826Z,60.80
2019-04-29T20:02:52.942Z,60.80
2019-04-29T20:05:45.999Z,60.70
2019-04-29T20:08:31.579Z,60.70
2019-04-29T20:10:51.510Z,61.00
2019-04-29T20:13:30.281Z,61.10
2019-04-29T20:16:10.948Z,61.40
2019-04-29T20:18:40.789Z,61.10
2019-04-29T20:21:24.808Z,61.40
2019-04-29T20:23:47.577Z,62.00
2019-04-29T20:26:28.672Z,61.90
2019-04-29T20:28:55.616Z,62.60
2019-04-29T20:31:25.837Z,62.30
2019-04-29T20:33:58.504Z,62.60
2019-04-29T20:36:38.160Z,62.10
2019-04-29T20:39:00.641Z,62.10
2019-04-29T20:41:40.681Z,63.30
2019-04-29T20:44:08.152Z,63.40
2019-04-29T20:46:45.319Z,63.10
2019-04-29T20:49:09.028Z,63.40
2019-04-29T20:51:49.604Z,63.80
2019-04-29T20:54:19.943Z,64.60
2019-04-29T20:57:02.168Z,63.70
2019-04-29T20:59:25.578Z,64.90
2019-04-29T21:02:12.402Z,64.60
2019-04-29T21:04:46.139Z,65.10
2019-04-29T21:07:11.036Z,65.60
2019-04-29T21:09:41.462Z,65.80
2019-04-29T21:12:20.435Z,65.70
2019-04-29T21:15:01.987Z,65.30
2019-04-29T21:17:32.500Z,66.10
2019-04-29T21:20:02.724Z,66.10
2019-04-29T21:22:33.001Z,66.50
2019-04-29T21:25:03.202Z,66.20
2019-04-29T21:27:35.194Z,66.90
